createdAt,value
2017-08-17T00:01:10.315Z,19.10
2017-08-17T00:03:36.716Z,19.00
2017-08-17T00:06:03.137Z,19.00
2017-08-17T00:08:29.530Z,19.00
2017-08-17T00:10:55.928Z,18.90
2017-08-17T00:13:23.083Z,18.90
2017-08-17T00:15:50.227Z,18.90
2017-08-17T00:18:17.382Z,18.80
2017-08-17T00:20:44.519Z,18.80
2017-08-17T00:23:10.922Z,18.80
2017-08-17T00:25:37.334Z,18.80
2017-08-17T00:28:03.719Z,18.80
2017-08-17T00:30:30.875Z,18.80
2017-08-17T00:32:57.276Z,18.80
2017-08-17T00:35:23.722Z,18.80
2017-08-17T00:37:50.140Z,18.80
2017-08-17T00:40:16.560Z,18.70
2017-08-17T00:42:42.991Z,18.70
2017-08-17T00:45:09.413Z,18.60
2017-08-17T00:47:35.835Z,18.60
2017-08-17T00:50:02.253Z,18.60
2017-08-17T00:52:28.711Z,18.60
2017-08-17T00:54:55.125Z,18.60
2017-08-17T00:57:21.556Z,18.50
2017-08-17T00:59:47.959Z,18.50
2017-08-17T01:02:14.356Z,18.50
2017-08-17T01:04:40.772Z,18.50
2017-08-17T01:07:07.267Z,18.50
2017-08-17T01:09:34.435Z,18.40
2017-08-17T01:12:00.831Z,18.40
2017-08-17T01:14:27.291Z,18.30
2017-08-17T01:16:54.443Z,18.30
2017-08-17T01:19:20.886Z,18.30
2017-08-17T01:21:47.315Z,18.40
2017-08-17T01:24:13.807Z,18.40
2017-08-17T01:26:40.242Z,18.40
2017-08-17T01:29:06.665Z,18.30
2017-08-17T01:31:33.118Z,18.30
2017-08-17T01:33:59.543Z,18.30
2017-08-17T01:36:26.016Z,18.30
2017-08-17T01:38:52.479Z,18.30
2017-08-17T01:41:18.935Z,18.20
2017-08-17T01:43:45.383Z,18.30
2017-08-17T01:46:11.807Z,18.20
2017-08-17T01:48:38.230Z,18.30
2017-08-17T01:51:04.692Z,18.20
2017-08-17T01:53:31.108Z,18.20
2017-08-17T01:55:57.551Z,18.20
2017-08-17T01:58:23.991Z,18.20
2017-08-17T02:00:51.151Z,18.20
2017-08-17T02:03:17.603Z,18.20
2017-08-17T02:05:43.986Z,18.20
2017-08-17T02:08:10.411Z,18.20
2017-08-17T02:10:36.830Z,18.10
2017-08-17T02:13:03.228Z,18.10
2017-08-17T02:15:29.622Z,18.10
2017-08-17T02:17:56.003Z,18.10
2017-08-17T02:20:22.424Z,18.10
2017-08-17T02:22:48.860Z,18.10
2017-08-17T02:25:15.240Z,18.10
2017-08-17T02:27:41.644Z,18.00
2017-08-17T02:30:08.032Z,17.90
2017-08-17T02:32:35.192Z,17.80
2017-08-17T02:35:02.312Z,17.80
2017-08-17T02:37:28.679Z,17.80
2017-08-17T02:39:55.824Z,17.80
2017-08-17T02:42:22.187Z,17.80
2017-08-17T02:44:48.583Z,17.80
2017-08-17T02:47:15.700Z,17.70
2017-08-17T02:49:42.085Z,17.70
2017-08-17T02:52:08.497Z,17.70
2017-08-17T02:54:35.612Z,17.70
2017-08-17T02:57:02.014Z,17.70
2017-08-17T02:59:28.419Z,17.80
2017-08-17T03:01:55.546Z,17.70
2017-08-17T03:04:21.979Z,17.70
2017-08-17T03:06:48.382Z,17.80
2017-08-17T03:09:14.835Z,17.70
2017-08-17T03:11:41.232Z,17.70
2017-08-17T03:14:07.757Z,17.70
2017-08-17T03:16:34.168Z,17.60
2017-08-17T03:19:00.547Z,17.60
2017-08-17T03:21:26.961Z,17.60
2017-08-17T03:23:53.364Z,17.60
2017-08-17T03:26:19.772Z,17.50
2017-08-17T03:28:46.147Z,17.60
2017-08-17T03:31:12.575Z,17.60
2017-08-17T03:33:38.987Z,17.60
2017-08-17T03:36:06.104Z,17.50
2017-08-17T03:38:32.475Z,17.50
2017-08-17T03:40:58.872Z,17.50
2017-08-17T03:43:25.271Z,17.50
2017-08-17T03:45:51.672Z,17.50
2017-08-17T03:48:18.799Z,17.50
2017-08-17T03:50:45.209Z,17.40
2017-08-17T03:53:11.583Z,17.50
2017-08-17T03:55:38.716Z,17.40
2017-08-17T03:58:05.871Z,17.40
2017-08-17T04:00:33.006Z,17.40
2017-08-17T04:02:59.435Z,17.30
2017-08-17T04:05:25.828Z,17.30
2017-08-17T04:07:52.235Z,17.30
2017-08-17T04:10:18.621Z,17.30
2017-08-17T04:12:45.027Z,17.10
2017-08-17T04:15:18.620Z,17.20
2017-08-17T04:17:44.987Z,17.20
2017-08-17T04:20:11.423Z,17.20
2017-08-17T04:22:37.815Z,17.20
2017-08-17T04:25:04.187Z,17.20
2017-08-17T04:27:30.620Z,17.20
2017-08-17T04:29:57.010Z,17.30
2017-08-17T04:32:23.392Z,17.30
2017-08-17T04:34:49.843Z,17.30
2017-08-17T04:37:16.435Z,17.30
2017-08-17T04:39:42.938Z,17.30
2017-08-17T04:42:09.368Z,17.30
2017-08-17T04:44:35.776Z,17.30
2017-08-17T04:47:02.988Z,17.50
2017-08-17T04:49:29.411Z,17.50
2017-08-17T04:51:55.944Z,17.60
2017-08-17T04:54:22.392Z,17.50
2017-08-17T04:57:12.747Z,17.40
2017-08-17T04:59:39.119Z,17.40
2017-08-17T05:02:05.523Z,17.40
2017-08-17T05:04:31.916Z,17.50
2017-08-17T05:06:59.076Z,17.50
2017-08-17T05:09:26.204Z,17.60
2017-08-17T05:11:53.360Z,17.60
2017-08-17T05:14:19.784Z,17.60
2017-08-17T05:16:46.159Z,17.60
2017-08-17T05:19:12.559Z,17.60
2017-08-17T05:21:39.707Z,17.80
2017-08-17T05:24:06.152Z,17.80
2017-08-17T05:26:33.327Z,17.80
2017-08-17T05:28:59.756Z,17.80
2017-08-17T05:31:26.143Z,17.90
2017-08-17T05:33:52.508Z,18.00
2017-08-17T05:36:18.975Z,18.10
2017-08-17T05:38:45.395Z,18.20
2017-08-17T05:41:11.775Z,18.30
2017-08-17T05:43:38.197Z,18.30
2017-08-17T05:46:04.587Z,18.50
2017-08-17T05:48:30.967Z,18.60
2017-08-17T05:50:57.432Z,18.70
2017-08-17T05:53:24.567Z,18.80
2017-08-17T05:55:50.979Z,18.80
2017-08-17T05:58:17.363Z,18.80
2017-08-17T06:00:43.759Z,18.90
2017-08-17T06:03:10.168Z,18.90
2017-08-17T06:05:36.565Z,18.90
2017-08-17T06:08:02.991Z,18.90
2017-08-17T06:10:29.408Z,18.90
2017-08-17T06:12:56.580Z,19.00
2017-08-17T06:15:22.984Z,19.00
2017-08-17T06:17:50.136Z,19.10
2017-08-17T06:20:17.271Z,19.10
2017-08-17T06:22:43.647Z,19.10
2017-08-17T06:25:10.095Z,19.10
2017-08-17T06:27:36.511Z,19.20
2017-08-17T06:30:02.997Z,19.30
2017-08-17T06:32:29.380Z,19.30
2017-08-17T06:34:55.776Z,19.40
2017-08-17T06:37:22.928Z,19.40
2017-08-17T06:39:50.071Z,19.50
2017-08-17T06:42:17.207Z,19.50
2017-08-17T06:44:43.611Z,19.50
2017-08-17T06:47:10.011Z,19.60
2017-08-17T06:49:36.398Z,19.60
2017-08-17T06:52:02.807Z,19.70
2017-08-17T06:54:29.193Z,19.70
2017-08-17T06:56:56.316Z,19.80
2017-08-17T06:59:22.731Z,19.80
2017-08-17T07:01:49.114Z,19.80
2017-08-17T07:04:16.279Z,19.90
2017-08-17T07:06:42.655Z,19.90
2017-08-17T07:09:09.035Z,19.90
2017-08-17T07:11:35.448Z,20.00
2017-08-17T07:14:02.599Z,20.10
2017-08-17T07:16:29.071Z,20.10
2017-08-17T07:18:55.447Z,20.10
2017-08-17T07:21:21.856Z,20.20
2017-08-17T07:23:48.267Z,20.30
2017-08-17T07:26:14.684Z,20.30
2017-08-17T07:28:41.075Z,20.40
2017-08-17T07:31:07.479Z,20.50
2017-08-17T07:33:33.900Z,20.50
2017-08-17T07:36:00.269Z,20.60
2017-08-17T07:38:26.672Z,20.70
2017-08-17T07:40:53.091Z,20.70
2017-08-17T07:43:19.476Z,20.80
2017-08-17T07:45:46.642Z,20.90
2017-08-17T07:48:13.788Z,21.00
2017-08-17T07:50:40.940Z,21.00
2017-08-17T07:53:08.115Z,21.10
2017-08-17T07:55:34.534Z,21.00
2017-08-17T07:58:00.972Z,21.10
2017-08-17T08:00:27.383Z,21.30
2017-08-17T08:02:54.531Z,21.40
2017-08-17T08:05:21.693Z,21.50
2017-08-17T08:07:48.089Z,21.50
2017-08-17T08:10:14.506Z,21.60
2017-08-17T08:12:40.916Z,21.60
2017-08-17T08:15:07.336Z,21.70
2017-08-17T08:17:33.735Z,21.70
2017-08-17T08:20:00.127Z,21.80
2017-08-17T08:22:26.531Z,22.00
2017-08-17T08:24:52.936Z,22.00
2017-08-17T08:27:19.350Z,22.00
2017-08-17T08:29:45.768Z,22.10
2017-08-17T08:32:12.180Z,22.20
2017-08-17T08:34:38.548Z,22.40
2017-08-17T08:37:04.930Z,22.50
2017-08-17T08:39:31.350Z,22.60
2017-08-17T08:41:58.466Z,22.70
2017-08-17T08:44:24.855Z,22.70
2017-08-17T08:46:51.252Z,22.80
2017-08-17T08:49:18.370Z,22.90
2017-08-17T08:51:44.767Z,22.90
2017-08-17T08:54:11.163Z,23.00
2017-08-17T08:56:38.295Z,23.10
2017-08-17T08:59:04.732Z,23.10
2017-08-17T09:01:31.139Z,23.30
2017-08-17T09:03:57.519Z,23.30
2017-08-17T09:06:24.675Z,23.50
2017-08-17T09:08:51.059Z,23.40
2017-08-17T09:11:17.487Z,23.40
2017-08-17T09:13:43.868Z,23.40
2017-08-17T09:16:11.012Z,23.50
2017-08-17T09:18:38.155Z,23.60
2017-08-17T09:21:04.542Z,23.50
2017-08-17T09:23:30.984Z,23.70
2017-08-17T09:25:57.372Z,23.70
2017-08-17T09:28:23.802Z,23.80
2017-08-17T09:30:50.179Z,23.90
2017-08-17T09:33:16.548Z,23.90
2017-08-17T09:35:42.943Z,23.90
2017-08-17T09:38:16.380Z,24.10
2017-08-17T09:40:43.512Z,24.20
2017-08-17T09:43:09.892Z,24.20
2017-08-17T09:45:36.324Z,24.30
2017-08-17T09:48:02.763Z,24.40
2017-08-17T09:50:29.167Z,24.50
2017-08-17T09:52:56.300Z,24.50
2017-08-17T09:55:22.696Z,24.50
2017-08-17T09:57:49.076Z,24.60
2017-08-17T10:00:16.226Z,24.60
2017-08-17T10:02:42.606Z,24.60
2017-08-17T10:05:09.022Z,24.70
2017-08-17T10:07:35.403Z,24.80
2017-08-17T10:10:01.813Z,24.80
2017-08-17T10:12:28.227Z,24.80
2017-08-17T10:14:54.621Z,24.90
2017-08-17T10:17:21.032Z,25.00
2017-08-17T10:19:47.404Z,25.10
2017-08-17T10:22:13.783Z,25.20
2017-08-17T10:24:40.187Z,25.30
2017-08-17T10:27:06.595Z,25.30
2017-08-17T10:29:32.995Z,25.40
2017-08-17T10:31:59.423Z,25.50
2017-08-17T10:34:25.795Z,25.60
2017-08-17T10:36:52.179Z,25.50
2017-08-17T10:39:18.594Z,25.50
2017-08-17T10:41:45.011Z,25.70
2017-08-17T10:44:11.392Z,25.80
2017-08-17T10:46:37.770Z,25.80
2017-08-17T10:49:04.175Z,25.80
2017-08-17T10:51:30.564Z,25.90
2017-08-17T10:53:57.791Z,26.00
2017-08-17T10:56:24.183Z,26.20
2017-08-17T10:58:51.292Z,26.50
2017-08-17T11:01:17.700Z,26.50
2017-08-17T11:03:44.091Z,26.60
2017-08-17T11:06:11.228Z,26.70
2017-08-17T11:08:37.683Z,26.70
2017-08-17T11:11:04.072Z,26.80
2017-08-17T11:13:30.507Z,26.90
2017-08-17T11:15:56.887Z,26.90
2017-08-17T11:18:23.259Z,27.00
2017-08-17T11:20:49.648Z,27.10
2017-08-17T11:23:16.040Z,27.20
2017-08-17T11:25:42.470Z,27.30
2017-08-17T11:28:08.926Z,27.40
2017-08-17T11:30:35.312Z,27.50
2017-08-17T11:33:01.715Z,27.70
2017-08-17T11:35:28.088Z,27.90
2017-08-17T11:37:54.500Z,27.90
2017-08-17T11:40:27.944Z,27.90
2017-08-17T11:42:54.324Z,28.00
2017-08-17T11:45:20.718Z,28.10
2017-08-17T11:47:47.132Z,28.10
2017-08-17T11:50:13.556Z,28.20
2017-08-17T11:52:39.976Z,28.40
2017-08-17T11:55:06.378Z,28.50
2017-08-17T11:57:32.799Z,28.60
2017-08-17T11:59:59.227Z,28.80
2017-08-17T12:02:26.379Z,29.10
2017-08-17T12:04:52.756Z,29.10
2017-08-17T12:07:19.156Z,29.40
2017-08-17T12:09:45.564Z,29.60
2017-08-17T12:12:11.959Z,29.60
2017-08-17T12:14:38.352Z,29.70
2017-08-17T12:17:04.776Z,29.90
2017-08-17T12:19:31.191Z,30.30
2017-08-17T12:21:57.563Z,30.50
2017-08-17T12:24:23.976Z,30.70
2017-08-17T12:26:50.355Z,31.10
2017-08-17T12:29:16.787Z,31.40
2017-08-17T12:31:43.206Z,31.50
2017-08-17T12:34:09.603Z,31.50
2017-08-17T12:36:36.751Z,32.40
2017-08-17T12:39:03.287Z,32.40
2017-08-17T12:41:29.814Z,32.70
2017-08-17T12:43:56.955Z,33.10
2017-08-17T12:46:24.120Z,33.10
2017-08-17T12:48:51.244Z,33.00
2017-08-17T12:51:17.647Z,33.00
2017-08-17T12:53:44.043Z,33.00
2017-08-17T12:56:10.447Z,33.00
2017-08-17T12:58:36.858Z,32.50
2017-08-17T13:01:03.263Z,32.40
2017-08-17T13:03:29.683Z,33.00
2017-08-17T13:05:56.068Z,33.00
2017-08-17T13:08:22.484Z,32.90
2017-08-17T13:10:48.883Z,33.10
2017-08-17T13:13:15.468Z,33.40
2017-08-17T13:15:41.884Z,33.30
2017-08-17T13:18:08.304Z,33.60
2017-08-17T13:20:34.728Z,33.30
2017-08-17T13:23:01.106Z,33.00
2017-08-17T13:25:27.471Z,33.50
2017-08-17T13:27:53.898Z,33.70
2017-08-17T13:30:20.340Z,33.80
2017-08-17T13:32:46.719Z,33.80
2017-08-17T13:35:13.116Z,33.80
2017-08-17T13:37:39.527Z,33.90
2017-08-17T13:40:05.903Z,34.50
2017-08-17T13:42:32.288Z,34.80
2017-08-17T13:44:58.688Z,34.90
2017-08-17T13:47:25.061Z,35.00
2017-08-17T13:49:51.498Z,34.70
2017-08-17T13:52:17.879Z,34.70
2017-08-17T13:54:44.261Z,34.10
2017-08-17T13:57:10.675Z,33.80
2017-08-17T13:59:37.080Z,33.80
2017-08-17T14:02:03.491Z,34.40
2017-08-17T14:04:29.875Z,34.20
2017-08-17T14:06:56.287Z,33.90
2017-08-17T14:09:22.676Z,33.50
2017-08-17T14:11:49.084Z,33.70
2017-08-17T14:14:15.491Z,34.20
2017-08-17T14:16:42.612Z,33.70
2017-08-17T14:19:09.066Z,33.70
2017-08-17T14:21:36.219Z,33.20
2017-08-17T14:24:02.615Z,33.10
2017-08-17T14:26:29.065Z,33.00
2017-08-17T14:28:55.474Z,32.80
2017-08-17T14:31:21.858Z,32.90
2017-08-17T14:33:49.000Z,33.50
2017-08-17T14:36:16.163Z,34.10
2017-08-17T14:38:43.270Z,34.00
2017-08-17T14:41:09.675Z,33.90
2017-08-17T14:43:36.079Z,33.60
2017-08-17T14:46:02.544Z,34.20
2017-08-17T14:48:28.972Z,34.10
2017-08-17T14:50:55.362Z,34.30
2017-08-17T14:53:22.492Z,34.20
2017-08-17T14:55:48.898Z,34.10
2017-08-17T14:58:15.332Z,33.80
2017-08-17T15:00:41.742Z,33.30
2017-08-17T15:03:08.214Z,33.70
2017-08-17T15:05:34.621Z,33.50
2017-08-17T15:08:01.079Z,32.70
2017-08-17T15:10:27.972Z,32.90
2017-08-17T15:12:54.593Z,32.70
2017-08-17T15:15:21.019Z,32.60
2017-08-17T15:17:47.419Z,31.90
2017-08-17T15:20:13.827Z,31.80
2017-08-17T15:22:40.208Z,31.50
2017-08-17T15:25:06.594Z,31.10
2017-08-17T15:27:32.976Z,31.20
2017-08-17T15:29:59.488Z,30.90
2017-08-17T15:32:25.875Z,31.00
2017-08-17T15:34:52.264Z,31.00
2017-08-17T15:37:18.671Z,30.90
2017-08-17T15:39:45.123Z,30.70
2017-08-17T15:42:11.556Z,30.40
2017-08-17T15:44:37.962Z,30.20
2017-08-17T15:47:04.334Z,30.10
2017-08-17T15:49:30.753Z,30.10
2017-08-17T15:51:57.160Z,29.80
2017-08-17T15:54:23.627Z,29.70
2017-08-17T15:56:50.050Z,29.70
2017-08-17T15:59:16.472Z,29.50
2017-08-17T16:01:42.876Z,29.60
2017-08-17T16:04:09.252Z,29.50
2017-08-17T16:06:35.652Z,29.60
2017-08-17T16:09:02.095Z,29.40
2017-08-17T16:11:28.515Z,29.30
2017-08-17T16:13:54.947Z,29.30
2017-08-17T16:16:21.328Z,29.20
2017-08-17T16:18:47.811Z,29.30
2017-08-17T16:21:14.254Z,29.10
2017-08-17T16:23:40.632Z,29.00
2017-08-17T16:26:07.088Z,28.90
2017-08-17T16:28:33.504Z,28.90
2017-08-17T16:31:00.695Z,28.70
2017-08-17T16:33:27.136Z,28.70
2017-08-17T16:35:53.514Z,28.80
2017-08-17T16:38:19.891Z,28.80
2017-08-17T16:40:46.340Z,28.70
2017-08-17T16:43:12.748Z,28.60
2017-08-17T16:45:39.161Z,28.70
2017-08-17T16:48:05.547Z,28.70
2017-08-17T16:50:31.959Z,28.70
2017-08-17T16:52:58.358Z,28.50
2017-08-17T16:55:25.520Z,28.20
2017-08-17T16:57:51.902Z,28.10
2017-08-17T17:00:18.307Z,28.10
2017-08-17T17:02:44.716Z,28.20
2017-08-17T17:05:11.096Z,28.00
2017-08-17T17:07:37.480Z,27.80
2017-08-17T17:10:03.970Z,27.80
2017-08-17T17:12:30.344Z,27.80
2017-08-17T17:14:56.766Z,27.90
2017-08-17T17:17:23.883Z,27.70
2017-08-17T17:19:50.300Z,27.70
2017-08-17T17:22:16.679Z,27.70
2017-08-17T17:24:43.076Z,27.70
2017-08-17T17:27:09.467Z,27.60
2017-08-17T17:29:35.923Z,27.40
2017-08-17T17:32:02.330Z,27.40
2017-08-17T17:34:28.732Z,27.30
2017-08-17T17:36:55.131Z,27.30
2017-08-17T17:39:21.533Z,27.10
2017-08-17T17:41:47.922Z,27.00
2017-08-17T17:44:14.332Z,27.00
2017-08-17T17:46:40.751Z,26.90
2017-08-17T17:49:07.139Z,26.90
2017-08-17T17:51:33.624Z,26.90
2017-08-17T17:54:00.047Z,26.60
2017-08-17T17:56:26.422Z,26.40
2017-08-17T17:58:53.560Z,26.40
2017-08-17T18:01:20.074Z,26.40
2017-08-17T18:03:46.451Z,26.30
2017-08-17T18:06:12.874Z,26.10
2017-08-17T18:08:40.044Z,25.80
2017-08-17T18:11:06.500Z,25.70
2017-08-17T18:13:32.895Z,25.70
2017-08-17T18:16:00.016Z,25.70
2017-08-17T18:18:26.473Z,25.60
2017-08-17T18:20:52.979Z,25.60
2017-08-17T18:23:19.378Z,25.50
2017-08-17T18:25:45.828Z,25.50
2017-08-17T18:28:12.244Z,25.50
2017-08-17T18:30:38.828Z,25.40
2017-08-17T18:33:05.323Z,25.30
2017-08-17T18:35:31.911Z,25.20
2017-08-17T18:37:59.183Z,25.10
2017-08-17T18:40:25.647Z,25.00
2017-08-17T18:42:52.051Z,25.00
2017-08-17T18:45:18.427Z,25.00
2017-08-17T18:47:44.856Z,24.90
2017-08-17T18:50:11.290Z,24.80
2017-08-17T18:52:37.667Z,24.70
2017-08-17T18:55:04.087Z,24.60
2017-08-17T18:57:31.234Z,24.40
2017-08-17T18:59:57.752Z,24.40
2017-08-17T19:02:24.235Z,24.40
2017-08-17T19:04:50.744Z,24.40
2017-08-17T19:07:17.128Z,24.30
2017-08-17T19:09:43.575Z,24.20
2017-08-17T19:12:09.959Z,24.10
2017-08-17T19:14:36.348Z,24.10
2017-08-17T19:17:03.144Z,24.00
2017-08-17T19:19:30.364Z,23.80
2017-08-17T19:21:57.599Z,23.80
2017-08-17T19:24:24.032Z,23.70
2017-08-17T19:26:50.432Z,23.80
2017-08-17T19:29:16.810Z,23.70
2017-08-17T19:31:43.312Z,23.70
2017-08-17T19:34:09.696Z,23.70
2017-08-17T19:36:36.844Z,23.60
2017-08-17T19:39:03.263Z,23.60
2017-08-17T19:41:30.469Z,23.50
2017-08-17T19:43:56.895Z,23.50
2017-08-17T19:46:23.292Z,23.40
2017-08-17T19:48:49.914Z,23.40
2017-08-17T19:51:17.259Z,23.20
2017-08-17T19:53:44.469Z,23.10
2017-08-17T19:56:10.891Z,23.10
2017-08-17T19:58:37.307Z,23.00
2017-08-17T20:01:03.808Z,22.90
2017-08-17T20:03:30.216Z,22.90
2017-08-17T20:05:56.707Z,23.00
2017-08-17T20:08:23.205Z,22.90
2017-08-17T20:10:50.435Z,22.70
2017-08-17T20:13:16.811Z,22.70
2017-08-17T20:15:44.024Z,22.70
2017-08-17T20:18:10.431Z,22.60
2017-08-17T20:20:36.907Z,22.60
2017-08-17T20:23:04.135Z,22.60
2017-08-17T20:25:30.552Z,22.60
2017-08-17T20:27:56.956Z,22.60
2017-08-17T20:30:24.131Z,22.50
2017-08-17T20:32:50.575Z,22.50
2017-08-17T20:35:16.964Z,22.60
2017-08-17T20:37:44.096Z,22.50
2017-08-17T20:40:10.619Z,22.40
2017-08-17T20:42:37.083Z,22.40
2017-08-17T20:45:03.507Z,22.40
2017-08-17T20:47:29.889Z,22.40
2017-08-17T20:49:56.351Z,22.40
2017-08-17T20:52:22.736Z,22.40
2017-08-17T20:54:49.148Z,22.30
2017-08-17T20:57:15.531Z,22.30
2017-08-17T20:59:41.943Z,22.30
2017-08-17T21:02:08.367Z,22.30
2017-08-17T21:04:34.763Z,22.20
2017-08-17T21:07:01.140Z,22.20
2017-08-17T21:09:27.661Z,22.10
2017-08-17T21:11:54.083Z,22.10
2017-08-17T21:14:21.228Z,22.00
2017-08-17T21:16:48.396Z,22.00
2017-08-17T21:19:14.979Z,22.00
2017-08-17T21:21:41.485Z,21.90
2017-08-17T21:24:07.887Z,21.90
2017-08-17T21:26:35.023Z,21.90
2017-08-17T21:29:02.156Z,21.90
2017-08-17T21:31:28.702Z,21.80
2017-08-17T21:33:55.850Z,21.90
2017-08-17T21:36:22.280Z,21.80
2017-08-17T21:38:49.415Z,21.80
2017-08-17T21:41:15.823Z,21.70
2017-08-17T21:43:42.240Z,21.70
2017-08-17T21:46:08.653Z,21.70
2017-08-17T21:48:35.046Z,21.70
2017-08-17T21:51:01.474Z,21.70
2017-08-17T21:53:27.865Z,21.70
2017-08-17T21:55:54.242Z,21.60
2017-08-17T21:58:20.649Z,21.60
2017-08-17T22:00:47.068Z,21.60
2017-08-17T22:03:13.448Z,21.50
2017-08-17T22:05:39.859Z,21.50
2017-08-17T22:08:06.231Z,21.40
2017-08-17T22:10:33.435Z,21.50
2017-08-17T22:12:59.807Z,21.40
2017-08-17T22:15:26.960Z,21.50
2017-08-17T22:17:54.099Z,21.50
2017-08-17T22:20:20.579Z,21.50
2017-08-17T22:22:46.979Z,21.40
2017-08-17T22:25:14.099Z,21.30
2017-08-17T22:27:40.499Z,21.30
2017-08-17T22:30:06.957Z,21.30
2017-08-17T22:32:33.344Z,21.30
2017-08-17T22:34:59.748Z,21.20
2017-08-17T22:37:26.127Z,21.20
2017-08-17T22:39:52.563Z,21.20
2017-08-17T22:42:18.979Z,21.20
2017-08-17T22:44:45.386Z,21.20
2017-08-17T22:47:12.487Z,21.20
2017-08-17T22:49:38.931Z,21.20
2017-08-17T22:52:05.331Z,21.20
2017-08-17T22:54:31.707Z,21.20
2017-08-17T22:56:58.083Z,21.30
2017-08-17T22:59:24.495Z,21.20
2017-08-17T23:01:51.614Z,21.20
2017-08-17T23:04:18.075Z,21.20
2017-08-17T23:06:44.479Z,21.20
2017-08-17T23:09:10.867Z,21.20
2017-08-17T23:11:37.318Z,21.10
2017-08-17T23:16:36.947Z,21.10
2017-08-17T23:19:03.331Z,21.10
2017-08-17T23:21:30.538Z,21.00
2017-08-17T23:23:56.905Z,21.00
2017-08-17T23:26:23.304Z,21.00
2017-08-17T23:28:56.642Z,20.90
2017-08-17T23:31:23.838Z,20.80
2017-08-17T23:33:50.240Z,20.80
2017-08-17T23:36:16.624Z,20.80
2017-08-17T23:38:43.030Z,20.80
2017-08-17T23:41:09.451Z,20.80
2017-08-17T23:43:35.819Z,20.70
2017-08-17T23:46:02.215Z,20.70
2017-08-17T23:48:28.645Z,20.70
2017-08-17T23:50:55.104Z,20.60
2017-08-17T23:53:21.495Z,20.60
2017-08-17T23:55:48.624Z,20.50
2017-08-17T23:58:15.803Z,20.50
